createdAt,value
2018-09-04T00:01:32.238Z,17.47
2018-09-04T00:04:00.506Z,17.49
2018-09-04T00:06:28.752Z,17.39
2018-09-04T00:08:57.025Z,17.69
2018-09-04T00:11:25.225Z,17.75
2018-09-04T00:13:53.467Z,17.78
2018-09-04T00:16:22.061Z,17.76
2018-09-04T00:18:50.265Z,17.66
2018-09-04T00:21:18.441Z,17.64
2018-09-04T00:23:46.609Z,17.55
2018-09-04T00:26:14.872Z,17.77
2018-09-04T00:28:43.125Z,17.84
2018-09-04T00:31:11.413Z,17.61
2018-09-04T00:33:39.722Z,17.68
2018-09-04T00:36:08.507Z,17.96
2018-09-04T00:38:36.669Z,17.81
2018-09-04T00:41:04.941Z,17.80
2018-09-04T00:43:33.202Z,17.74
2018-09-04T00:46:02.002Z,17.69
2018-09-04T00:48:30.408Z,17.81
2018-09-04T00:50:58.603Z,17.96
2018-09-04T00:53:26.820Z,17.65
2018-09-04T00:55:55.055Z,17.75
2018-09-04T00:58:23.268Z,17.65
2018-09-04T01:00:51.472Z,17.82
2018-09-04T01:03:19.728Z,17.63
2018-09-04T01:05:47.994Z,17.64
2018-09-04T01:08:16.274Z,17.47
2018-09-04T01:10:44.577Z,17.61
2018-09-04T01:13:12.761Z,17.87
2018-09-04T01:15:41.198Z,17.95
2018-09-04T01:18:09.743Z,17.94
2018-09-04T01:20:37.970Z,17.96
2018-09-04T01:23:06.339Z,17.94
2018-09-04T01:25:34.645Z,18.02
2018-09-04T01:28:02.897Z,18.00
2018-09-04T01:30:31.061Z,18.00
2018-09-04T01:32:59.268Z,17.97
2018-09-04T01:35:28.873Z,17.94
2018-09-04T01:37:57.069Z,17.91
2018-09-04T01:40:25.310Z,17.88
2018-09-04T01:42:53.605Z,17.82
2018-09-04T01:45:22.207Z,17.74
2018-09-04T01:47:50.444Z,17.68
2018-09-04T01:50:18.860Z,17.68
2018-09-04T01:52:47.041Z,17.72
2018-09-04T01:55:15.401Z,17.60
2018-09-04T01:57:43.589Z,17.65
2018-09-04T02:00:12.178Z,17.68
2018-09-04T02:02:40.616Z,17.54
2018-09-04T02:05:08.818Z,17.62
2018-09-04T02:07:37.054Z,17.59
2018-09-04T02:10:05.252Z,17.62
2018-09-04T02:12:33.422Z,17.58
2018-09-04T02:15:01.679Z,17.52
2018-09-04T02:17:29.864Z,17.50
2018-09-04T02:19:58.124Z,17.51
2018-09-04T02:22:26.305Z,17.57
2018-09-04T02:24:54.493Z,17.56
2018-09-04T02:27:22.674Z,17.49
2018-09-04T02:29:50.931Z,17.51
2018-09-04T02:32:19.257Z,17.48
2018-09-04T02:34:47.454Z,17.40
2018-09-04T02:37:15.653Z,17.36
2018-09-04T02:39:44.065Z,17.41
2018-09-04T02:42:12.305Z,17.37
2018-09-04T02:44:40.499Z,17.40
2018-09-04T02:47:08.711Z,17.31
2018-09-04T02:49:36.927Z,17.31
2018-09-04T02:52:05.251Z,17.40
2018-09-04T02:54:33.437Z,17.54
2018-09-04T02:57:01.661Z,17.48
2018-09-04T02:59:29.836Z,17.48
2018-09-04T03:01:58.433Z,17.46
2018-09-04T03:04:26.694Z,17.39
2018-09-04T03:06:54.877Z,17.43
2018-09-04T03:09:23.159Z,17.42
2018-09-04T03:11:51.414Z,17.53
2018-09-04T03:14:19.728Z,17.56
2018-09-04T03:16:47.914Z,17.38
2018-09-04T03:19:16.087Z,17.35
2018-09-04T03:21:44.474Z,17.28
2018-09-04T03:24:12.714Z,17.25
2018-09-04T03:26:40.877Z,17.39
2018-09-04T03:29:09.056Z,17.25
2018-09-04T03:31:37.254Z,17.34
2018-09-04T03:34:05.913Z,17.35
2018-09-04T03:36:34.123Z,17.28
2018-09-04T03:39:02.521Z,17.37
2018-09-04T03:41:30.725Z,17.46
2018-09-04T03:43:59.831Z,17.45
2018-09-04T03:46:28.023Z,17.38
2018-09-04T03:48:56.281Z,17.26
2018-09-04T03:51:24.453Z,17.26
2018-09-04T03:53:52.651Z,17.29
2018-09-04T03:56:20.903Z,17.38
2018-09-04T03:58:49.069Z,17.30
2018-09-04T04:01:17.385Z,17.07
2018-09-04T04:03:45.833Z,16.96
2018-09-04T04:06:14.020Z,17.23
2018-09-04T04:08:42.299Z,17.16
2018-09-04T04:11:10.464Z,17.35
2018-09-04T04:13:38.744Z,17.34
2018-09-04T04:16:06.912Z,17.39
2018-09-04T04:18:35.080Z,17.25
2018-09-04T04:21:03.264Z,17.15
2018-09-04T04:23:31.709Z,17.29
2018-09-04T04:26:01.330Z,17.21
2018-09-04T04:28:29.490Z,17.34
2018-09-04T04:30:57.940Z,17.51
2018-09-04T04:33:26.113Z,17.66
2018-09-04T04:35:54.305Z,17.61
2018-09-04T04:38:22.478Z,17.35
2018-09-04T04:40:50.645Z,17.18
2018-09-04T04:43:18.810Z,17.00
2018-09-04T04:45:47.053Z,17.07
2018-09-04T04:48:15.587Z,17.12
2018-09-04T04:50:43.697Z,17.30
2018-09-04T04:53:12.145Z,17.40
2018-09-04T04:55:40.305Z,17.45
2018-09-04T04:58:08.513Z,17.31
2018-09-04T05:00:36.695Z,17.25
2018-09-04T05:03:04.869Z,17.25
2018-09-04T05:05:33.040Z,17.38
2018-09-04T05:08:01.264Z,17.46
2018-09-04T05:10:29.444Z,17.51
2018-09-04T05:12:57.686Z,17.06
2018-09-04T05:15:25.966Z,17.52
2018-09-04T05:17:54.150Z,17.59
2018-09-04T05:20:25.670Z,17.63
2018-09-04T05:22:53.902Z,17.51
2018-09-04T05:25:22.060Z,17.39
2018-09-04T05:27:50.322Z,17.70
2018-09-04T05:30:18.590Z,17.92
2018-09-04T05:33:00.086Z,17.85
2018-09-04T05:35:33.890Z,17.95
2018-09-04T05:38:02.031Z,17.78
2018-09-04T05:40:30.230Z,17.84
2018-09-04T05:43:00.938Z,17.80
2018-09-04T05:45:30.349Z,17.85
2018-09-04T05:48:03.198Z,17.83
2018-09-04T05:50:31.446Z,17.89
2018-09-04T05:52:59.634Z,17.92
2018-09-04T05:55:28.089Z,17.99
2018-09-04T05:57:56.798Z,18.25
2018-09-04T06:00:27.118Z,18.16
2018-09-04T06:02:55.364Z,18.57
2018-09-04T06:05:23.896Z,18.62
2018-09-04T06:07:52.476Z,18.68
2018-09-04T06:10:20.706Z,18.66
2018-09-04T06:12:49.249Z,18.50
2018-09-04T06:15:17.667Z,18.74
2018-09-04T06:17:46.014Z,18.59
2018-09-04T06:20:14.269Z,18.98
2018-09-04T06:22:42.506Z,19.05
2018-09-04T06:25:11.212Z,19.31
2018-09-04T06:27:39.503Z,19.17
2018-09-04T06:30:08.395Z,19.55
2018-09-04T06:32:36.880Z,19.97
2018-09-04T06:35:06.988Z,19.95
2018-09-04T06:37:35.221Z,20.15
2018-09-04T06:40:03.440Z,20.52
2018-09-04T06:42:31.656Z,20.74
2018-09-04T06:44:59.841Z,21.19
2018-09-04T06:47:28.387Z,21.16
2018-09-04T06:49:56.653Z,20.52
2018-09-04T06:52:24.831Z,20.85
2018-09-04T06:54:53.145Z,20.92
2018-09-04T06:57:21.342Z,20.74
2018-09-04T06:59:49.505Z,20.76
2018-09-04T07:02:17.684Z,20.79
2018-09-04T07:04:45.865Z,21.13
2018-09-04T07:07:14.121Z,21.23
2018-09-04T07:09:42.329Z,21.00
2018-09-04T07:12:11.076Z,21.40
2018-09-04T07:14:39.259Z,21.50
2018-09-04T07:17:07.489Z,21.38
2018-09-04T07:19:35.615Z,21.42
2018-09-04T07:22:03.794Z,21.74
2018-09-04T07:24:32.287Z,21.64
2018-09-04T07:27:00.556Z,21.19
2018-09-04T07:29:28.839Z,20.96
2018-09-04T07:31:57.098Z,21.41
2018-09-04T07:34:25.405Z,22.29
2018-09-04T07:36:53.686Z,21.97
2018-09-04T07:39:21.868Z,21.48
2018-09-04T07:41:50.123Z,21.36
2018-09-04T07:44:18.277Z,21.57
2018-09-04T07:46:46.573Z,22.39
2018-09-04T07:49:14.846Z,22.35
2018-09-04T07:51:43.063Z,22.28
2018-09-04T07:54:11.277Z,22.93
2018-09-04T07:56:39.885Z,23.01
2018-09-04T07:59:08.093Z,23.19
2018-09-04T08:01:36.265Z,24.04
2018-09-04T08:04:04.501Z,24.15
2018-09-04T08:06:32.762Z,23.92
2018-09-04T08:09:00.933Z,23.40
2018-09-04T08:11:29.367Z,23.81
2018-09-04T08:13:57.581Z,23.62
2018-09-04T08:16:25.816Z,23.50
2018-09-04T08:18:53.963Z,23.26
2018-09-04T08:21:22.283Z,23.21
2018-09-04T08:23:50.443Z,23.44
2018-09-04T08:26:18.629Z,23.04
2018-09-04T08:28:46.836Z,23.35
2018-09-04T08:31:15.013Z,22.74
2018-09-04T08:33:43.236Z,23.14
2018-09-04T08:36:11.402Z,22.91
2018-09-04T08:38:45.238Z,23.35
2018-09-04T08:41:13.439Z,23.34
2018-09-04T08:43:41.642Z,22.88
2018-09-04T08:46:09.926Z,22.88
2018-09-04T08:48:38.272Z,23.15
2018-09-04T08:51:06.446Z,23.27
2018-09-04T08:53:34.685Z,23.45
2018-09-04T08:56:03.605Z,22.21
2018-09-04T08:58:31.795Z,23.12
2018-09-04T09:00:59.977Z,23.73
2018-09-04T09:03:28.258Z,24.48
2018-09-04T09:05:56.462Z,24.66
2018-09-04T09:08:24.679Z,24.72
2018-09-04T09:10:52.845Z,24.37
2018-09-04T09:13:21.008Z,23.87
2018-09-04T09:15:49.805Z,24.10
2018-09-04T09:18:17.980Z,24.80
2018-09-04T09:20:46.163Z,25.61
2018-09-04T09:23:14.777Z,25.44
2018-09-04T09:25:42.986Z,26.06
2018-09-04T09:28:11.253Z,25.26
2018-09-04T09:30:39.470Z,24.83
2018-09-04T09:33:07.651Z,25.02
2018-09-04T09:35:37.055Z,24.50
2018-09-04T09:38:05.353Z,24.35
2018-09-04T09:40:34.245Z,23.97
2018-09-04T09:43:02.509Z,23.72
2018-09-04T09:45:30.799Z,24.08
2018-09-04T09:47:58.978Z,24.35
2018-09-04T09:50:27.153Z,24.44
2018-09-04T09:52:55.484Z,24.30
2018-09-04T09:55:23.683Z,24.50
2018-09-04T09:57:51.850Z,24.17
2018-09-04T10:00:25.466Z,23.69
2018-09-04T10:02:59.010Z,23.62
2018-09-04T10:05:27.190Z,23.50
2018-09-04T10:07:55.465Z,23.35
2018-09-04T10:10:23.582Z,23.52
2018-09-04T10:12:51.872Z,23.78
2018-09-04T10:15:20.045Z,23.35
2018-09-04T10:17:48.217Z,23.06
2018-09-04T10:20:16.435Z,22.96
2018-09-04T10:22:44.617Z,23.08
2018-09-04T10:25:12.829Z,23.00
2018-09-04T10:27:41.053Z,23.81
2018-09-04T10:30:15.185Z,25.18
2018-09-04T10:32:50.925Z,27.07
2018-09-04T10:35:20.241Z,27.71
2018-09-04T10:37:48.494Z,27.75
2018-09-04T10:40:22.327Z,23.68
2018-09-04T10:42:50.531Z,26.86
2018-09-04T10:45:24.143Z,27.55
2018-09-04T10:47:52.674Z,27.64
2018-09-04T10:50:21.238Z,24.75
2018-09-04T10:52:49.638Z,28.35
2018-09-04T10:55:17.971Z,29.45
2018-09-04T10:57:46.258Z,30.30
2018-09-04T11:00:15.361Z,30.74
2018-09-04T11:02:43.621Z,29.14
2018-09-04T11:05:11.877Z,28.96
2018-09-04T11:07:40.080Z,27.73
2018-09-04T11:10:08.522Z,26.72
2018-09-04T11:12:36.806Z,24.23
2018-09-04T11:15:05.098Z,25.85
2018-09-04T11:17:33.653Z,26.00
2018-09-04T11:20:01.946Z,26.31
2018-09-04T11:22:30.149Z,26.42
2018-09-04T11:24:58.387Z,26.13
2018-09-04T11:27:26.657Z,26.07
2018-09-04T11:29:55.212Z,25.89
2018-09-04T11:32:23.378Z,26.18
2018-09-04T11:34:51.593Z,26.48
2018-09-04T11:37:20.075Z,25.89
2018-09-04T11:39:48.383Z,25.62
2018-09-04T11:42:16.637Z,24.41
2018-09-04T11:44:45.285Z,24.44
2018-09-04T11:47:13.925Z,24.70
2018-09-04T11:49:42.844Z,25.04
2018-09-04T11:52:11.644Z,23.93
2018-09-04T11:54:39.908Z,23.54
2018-09-04T11:57:08.102Z,24.29
2018-09-04T11:59:39.208Z,24.76
2018-09-04T12:02:11.398Z,24.91
2018-09-04T12:04:39.779Z,25.00
2018-09-04T12:07:07.941Z,25.47
2018-09-04T12:09:36.107Z,31.60
2018-09-04T12:12:04.352Z,34.65
2018-09-04T12:14:39.188Z,38.24
2018-09-04T12:17:08.534Z,39.57
2018-09-04T12:19:50.032Z,38.12
2018-09-04T12:22:18.223Z,36.17
2018-09-04T12:24:46.474Z,38.88
2018-09-04T12:27:14.776Z,32.95
2018-09-04T12:29:43.100Z,33.10
2018-09-04T12:32:11.305Z,32.19
2018-09-04T12:34:39.470Z,34.33
2018-09-04T12:37:07.660Z,33.85
2018-09-04T12:39:35.870Z,32.58
2018-09-04T12:42:04.123Z,32.02
2018-09-04T12:44:32.425Z,30.63
2018-09-04T12:47:00.816Z,29.39
2018-09-04T12:49:29.912Z,27.90
2018-09-04T12:51:58.481Z,28.46
2018-09-04T12:54:26.659Z,27.67
2018-09-04T12:56:54.929Z,26.55
2018-09-04T12:59:23.205Z,26.07
2018-09-04T13:01:51.401Z,25.53
2018-09-04T13:04:19.641Z,26.44
2018-09-04T13:06:47.843Z,25.79
2018-09-04T13:09:16.077Z,25.15
2018-09-04T13:11:44.273Z,25.08
2018-09-04T13:14:12.557Z,25.37
2018-09-04T13:16:40.746Z,24.88
2018-09-04T13:19:08.996Z,25.55
2018-09-04T13:21:37.276Z,26.38
2018-09-04T13:24:05.612Z,26.58
2018-09-04T13:26:34.143Z,26.74
2018-09-04T13:29:02.372Z,26.19
2018-09-04T13:31:30.902Z,27.57
2018-09-04T13:33:59.154Z,28.13
2018-09-04T13:36:27.466Z,27.66
2018-09-04T13:38:55.748Z,26.96
2018-09-04T13:41:23.938Z,25.92
2018-09-04T13:43:52.171Z,27.59
2018-09-04T13:46:20.708Z,26.81
2018-09-04T13:48:49.210Z,28.18
2018-09-04T13:51:17.413Z,28.22
2018-09-04T13:53:45.637Z,27.60
2018-09-04T13:56:13.809Z,25.04
2018-09-04T13:58:42.053Z,32.99
2018-09-04T14:01:10.241Z,30.91
2018-09-04T14:03:38.513Z,29.74
2018-09-04T14:06:06.845Z,38.35
2018-09-04T14:08:35.054Z,32.17
2018-09-04T14:11:03.223Z,34.12
2018-09-04T14:13:31.453Z,30.03
2018-09-04T14:16:01.873Z,36.94
2018-09-04T14:18:30.049Z,37.86
2018-09-04T14:20:58.504Z,37.05
2018-09-04T14:23:26.730Z,38.48
2018-09-04T14:25:54.916Z,36.89
2018-09-04T14:28:40.969Z,34.23
2018-09-04T14:30:51.768Z,29.65
2018-09-04T14:33:19.758Z,32.15
2018-09-04T14:35:47.960Z,32.40
2018-09-04T14:38:16.146Z,29.77
2018-09-04T14:40:44.666Z,32.34
2018-09-04T14:43:12.858Z,32.92
2018-09-04T14:45:41.032Z,35.38
2018-09-04T14:48:09.220Z,36.33
2018-09-04T14:50:37.472Z,30.96
2018-09-04T14:53:05.728Z,31.85
2018-09-04T14:55:34.030Z,30.07
2018-09-04T14:58:02.225Z,30.59
2018-09-04T15:00:30.681Z,29.91
2018-09-04T15:02:58.947Z,30.45
2018-09-04T15:05:27.241Z,28.86
2018-09-04T15:07:55.488Z,30.63
2018-09-04T15:10:23.777Z,29.40
2018-09-04T15:12:52.155Z,27.82
2018-09-04T15:15:20.683Z,26.77
2018-09-04T15:17:48.958Z,26.02
2018-09-04T15:20:17.217Z,25.49
2018-09-04T15:22:45.459Z,25.84
2018-09-04T15:25:13.996Z,23.88
2018-09-04T15:27:42.389Z,23.99
2018-09-04T15:30:10.705Z,24.27
2018-09-04T15:32:38.975Z,24.17
2018-09-04T15:35:08.897Z,24.45
2018-09-04T15:37:37.074Z,24.54
2018-09-04T15:40:05.350Z,25.15
2018-09-04T15:42:33.605Z,25.28
2018-09-04T15:45:01.788Z,24.73
2018-09-04T15:47:29.966Z,24.91
2018-09-04T15:49:58.510Z,25.35
2018-09-04T15:52:26.685Z,25.66
2018-09-04T15:54:54.858Z,25.56
2018-09-04T15:57:23.080Z,25.03
2018-09-04T15:59:51.356Z,24.50
2018-09-04T16:02:19.595Z,24.34
2018-09-04T16:04:47.829Z,24.14
2018-09-04T16:07:16.093Z,24.17
2018-09-04T16:09:44.417Z,23.95
2018-09-04T16:12:12.574Z,24.15
2018-09-04T16:14:40.805Z,23.85
2018-09-04T16:17:09.073Z,23.99
2018-09-04T16:19:37.253Z,24.24
2018-09-04T16:22:05.844Z,24.15
2018-09-04T16:24:34.189Z,24.13
2018-09-04T16:27:02.404Z,23.90
2018-09-04T16:29:30.662Z,23.42
2018-09-04T16:31:58.936Z,23.59
2018-09-04T16:34:27.367Z,23.02
2018-09-04T16:36:55.547Z,23.15
2018-09-04T16:39:23.787Z,23.05
2018-09-04T16:41:52.124Z,22.96
2018-09-04T16:44:20.904Z,22.98
2018-09-04T16:46:49.186Z,22.74
2018-09-04T16:49:17.406Z,22.55
2018-09-04T16:51:45.586Z,22.50
2018-09-04T16:54:13.830Z,22.14
2018-09-04T16:56:42.052Z,22.18
2018-09-04T16:59:10.305Z,22.03
2018-09-04T17:01:38.485Z,21.93
2018-09-04T17:04:06.752Z,22.09
2018-09-04T17:06:35.007Z,21.77
2018-09-04T17:09:03.758Z,21.76
2018-09-04T17:11:31.972Z,21.70
2018-09-04T17:14:00.470Z,21.55
2018-09-04T17:16:28.745Z,21.59
2018-09-04T17:18:57.015Z,21.40
2018-09-04T17:21:25.809Z,21.31
2018-09-04T17:23:54.039Z,21.10
2018-09-04T17:26:22.213Z,21.23
2018-09-04T17:28:50.529Z,21.14
2018-09-04T17:31:18.703Z,21.00
2018-09-04T17:33:46.881Z,20.96
2018-09-04T17:36:15.066Z,20.80
2018-09-04T17:38:43.309Z,20.70
2018-09-04T17:41:11.508Z,20.66
2018-09-04T17:43:39.816Z,20.59
2018-09-04T17:46:08.072Z,20.62
2018-09-04T17:48:36.650Z,20.62
2018-09-04T17:51:04.882Z,20.37
2018-09-04T17:53:33.517Z,20.47
2018-09-04T17:56:02.577Z,20.33
2018-09-04T17:58:30.810Z,20.18
2018-09-04T18:00:59.122Z,20.22
2018-09-04T18:03:27.321Z,20.11
2018-09-04T18:05:55.501Z,19.84
2018-09-04T18:08:23.770Z,19.93
2018-09-04T18:10:52.097Z,20.02
2018-09-04T18:13:20.626Z,20.02
2018-09-04T18:15:48.863Z,19.96
2018-09-04T18:18:17.061Z,19.93
2018-09-04T18:20:45.269Z,19.85
2018-09-04T18:23:13.528Z,19.85
2018-09-04T18:25:41.719Z,19.86
2018-09-04T18:28:09.985Z,19.82
2018-09-04T18:30:38.643Z,19.76
2018-09-04T18:33:07.056Z,19.72
2018-09-04T18:35:35.367Z,19.68
2018-09-04T18:38:03.620Z,19.76
2018-09-04T18:40:32.196Z,19.69
2018-09-04T18:43:00.672Z,19.63
2018-09-04T18:45:41.752Z,19.62
2018-09-04T18:48:09.934Z,19.53
2018-09-04T18:50:38.179Z,19.42
2018-09-04T18:53:06.916Z,19.36
2018-09-04T18:55:35.174Z,19.40
2018-09-04T18:58:03.426Z,19.42
2018-09-04T19:00:31.634Z,19.39
2018-09-04T19:02:59.917Z,19.38
2018-09-04T19:05:28.314Z,19.23
2018-09-04T19:07:56.550Z,19.19
2018-09-04T19:10:24.815Z,19.14
2018-09-04T19:12:53.022Z,19.10
2018-09-04T19:15:21.402Z,19.08
2018-09-04T19:17:49.578Z,19.01
2018-09-04T19:20:17.870Z,18.93
2018-09-04T19:22:46.751Z,18.90
2018-09-04T19:25:15.229Z,18.84
2018-09-04T19:27:43.425Z,18.78
2018-09-04T19:30:11.741Z,18.83
2018-09-04T19:32:40.161Z,18.80
2018-09-04T19:35:09.793Z,18.73
2018-09-04T19:37:38.192Z,18.65
2018-09-04T19:40:07.083Z,18.59
2018-09-04T19:42:35.524Z,18.56
2018-09-04T19:45:04.951Z,18.52
2018-09-04T19:47:33.166Z,18.50
2018-09-04T19:50:01.536Z,18.43
2018-09-04T19:52:29.788Z,18.45
2018-09-04T19:54:57.980Z,18.42
2018-09-04T19:57:26.239Z,18.40
2018-09-04T19:59:54.437Z,18.38
2018-09-04T20:02:22.686Z,18.38
2018-09-04T20:04:50.866Z,18.27
2018-09-04T20:07:19.153Z,18.21
2018-09-04T20:09:47.328Z,18.14
2018-09-04T20:12:15.618Z,18.02
2018-09-04T20:14:43.814Z,18.02
2018-09-04T20:17:11.997Z,18.04
2018-09-04T20:19:40.221Z,17.91
2018-09-04T20:22:09.269Z,17.86
2018-09-04T20:24:37.443Z,17.80
2018-09-04T20:27:05.662Z,17.79
2018-09-04T20:29:34.228Z,17.79
2018-09-04T20:32:02.387Z,17.72
2018-09-04T20:34:30.717Z,17.69
2018-09-04T20:36:59.035Z,17.61
2018-09-04T20:39:27.399Z,17.59
2018-09-04T20:41:56.124Z,17.54
2018-09-04T20:44:24.573Z,17.54
2018-09-04T20:46:52.831Z,17.56
2018-09-04T20:49:21.093Z,17.47
2018-09-04T20:51:49.588Z,17.49
2018-09-04T20:54:18.152Z,17.41
2018-09-04T20:57:10.096Z,17.38
2018-09-04T20:59:49.831Z,17.37
2018-09-04T21:02:29.306Z,17.39
2018-09-04T21:05:08.780Z,17.55
2018-09-04T21:07:52.231Z,17.79
2018-09-04T21:10:20.743Z,17.84
2018-09-04T21:12:49.015Z,17.95
2018-09-04T21:15:17.404Z,17.97
2018-09-04T21:17:45.952Z,17.97
2018-09-04T21:20:14.209Z,17.92
2018-09-04T21:22:42.514Z,17.91
2018-09-04T21:25:10.717Z,17.90
2018-09-04T21:27:38.898Z,17.89
2018-09-04T21:30:07.149Z,17.82
2018-09-04T21:32:35.393Z,17.85
2018-09-04T21:35:04.985Z,17.95
2018-09-04T21:37:33.201Z,17.90
2018-09-04T21:40:01.385Z,17.83
2018-09-04T21:42:29.697Z,17.94
2018-09-04T21:44:58.014Z,17.67
2018-09-04T21:47:26.201Z,17.80
2018-09-04T21:49:54.605Z,17.86
2018-09-04T21:52:22.943Z,17.87
2018-09-04T21:54:51.374Z,17.87
2018-09-04T21:57:19.620Z,17.87
2018-09-04T21:59:47.876Z,17.90
2018-09-04T22:02:16.083Z,17.98
2018-09-04T22:04:44.627Z,18.09
2018-09-04T22:07:13.093Z,18.04
2018-09-04T22:09:41.380Z,18.06
2018-09-04T22:12:11.044Z,18.07
2018-09-04T22:14:39.522Z,18.03
2018-09-04T22:17:08.012Z,18.01
2018-09-04T22:19:36.225Z,18.05
2018-09-04T22:22:04.925Z,18.11
2018-09-04T22:24:34.974Z,18.16
2018-09-04T22:27:07.355Z,18.07
2018-09-04T22:29:36.576Z,17.97
2018-09-04T22:32:05.022Z,17.93
2018-09-04T22:34:33.622Z,17.90
2018-09-04T22:37:03.110Z,17.89
2018-09-04T22:39:38.122Z,17.88
2018-09-04T22:42:06.396Z,17.88
2018-09-04T22:44:34.578Z,17.68
2018-09-04T22:47:02.853Z,17.56
2018-09-04T22:49:31.146Z,17.55
2018-09-04T22:52:01.568Z,17.53
2018-09-04T22:54:30.051Z,17.54
2018-09-04T22:56:58.229Z,17.49
2018-09-04T22:59:27.135Z,17.51
2018-09-04T23:01:55.343Z,17.57
2018-09-04T23:04:23.536Z,17.60
2018-09-04T23:06:51.847Z,17.50
2018-09-04T23:09:20.085Z,17.63
2018-09-04T23:11:48.568Z,17.65
2018-09-04T23:14:17.092Z,17.70
2018-09-04T23:16:45.294Z,17.70
2018-09-04T23:19:13.585Z,17.68
2018-09-04T23:21:41.759Z,17.58
2018-09-04T23:24:10.172Z,17.72
2018-09-04T23:26:38.418Z,17.57
2018-09-04T23:29:07.428Z,17.75
2018-09-04T23:31:35.632Z,17.69
2018-09-04T23:34:03.822Z,17.69
2018-09-04T23:36:32.003Z,17.67
2018-09-04T23:39:00.224Z,17.72
2018-09-04T23:41:28.502Z,17.54
2018-09-04T23:43:56.736Z,17.48
2018-09-04T23:46:25.040Z,17.54
2018-09-04T23:48:53.212Z,17.61
2018-09-04T23:51:21.421Z,17.56
2018-09-04T23:53:49.678Z,17.53
2018-09-04T23:56:18.117Z,17.61
2018-09-04T23:58:46.295Z,17.52
